createdAt,value
2023-05-03T00:00:00.937Z,59
2023-05-03T00:04:00.451Z,59
2023-05-03T00:08:00.427Z,59
2023-05-03T00:12:00.452Z,59
2023-05-03T00:16:00.449Z,59
2023-05-03T00:20:00.733Z,59
2023-05-03T00:24:00.446Z,59
2023-05-03T00:28:00.431Z,59
2023-05-03T00:32:00.529Z,59
2023-05-03T00:36:00.433Z,59
2023-05-03T00:40:00.679Z,59
2023-05-03T00:44:00.466Z,59
2023-05-03T00:48:00.537Z,59
2023-05-03T00:52:00.455Z,59
2023-05-03T00:56:00.497Z,59
2023-05-03T01:00:01.020Z,59
2023-05-03T01:04:00.732Z,60
2023-05-03T01:08:00.505Z,61
2023-05-03T01:12:00.502Z,61
2023-05-03T01:16:00.529Z,61
2023-05-03T01:20:00.935Z,62
2023-05-03T01:24:00.518Z,62
2023-05-03T01:28:00.464Z,62
2023-05-03T01:32:00.562Z,62
2023-05-03T01:36:00.467Z,63
2023-05-03T01:40:00.924Z,63
2023-05-03T01:44:00.467Z,63
2023-05-03T01:48:00.533Z,63
2023-05-03T01:52:00.449Z,64
2023-05-03T01:56:00.483Z,65
2023-05-03T02:00:00.523Z,65
2023-05-03T02:04:00.546Z,65
2023-05-03T02:08:00.476Z,66
2023-05-03T02:12:00.462Z,66
2023-05-03T02:16:00.430Z,66
2023-05-03T02:20:00.644Z,67
2023-05-03T02:24:00.437Z,67
2023-05-03T02:28:00.473Z,67
2023-05-03T02:32:00.428Z,67
2023-05-03T02:36:00.440Z,68
2023-05-03T02:40:00.641Z,68
2023-05-03T02:44:00.441Z,68
2023-05-03T02:48:00.455Z,69
2023-05-03T02:52:00.432Z,69
2023-05-03T02:56:00.435Z,69
2023-05-03T03:00:00.737Z,69
2023-05-03T03:04:00.550Z,69
2023-05-03T03:08:00.435Z,69
2023-05-03T03:12:00.436Z,69
2023-05-03T03:16:00.474Z,69
2023-05-03T03:20:00.837Z,70
2023-05-03T03:24:00.451Z,70
2023-05-03T03:28:00.428Z,70
2023-05-03T03:32:00.517Z,70
2023-05-03T03:36:00.450Z,70
2023-05-03T03:40:00.550Z,70
2023-05-03T03:44:00.449Z,70
2023-05-03T03:48:00.453Z,70
2023-05-03T03:52:00.434Z,70
2023-05-03T03:56:00.462Z,71
2023-05-03T04:00:00.629Z,71
2023-05-03T04:04:00.557Z,72
2023-05-03T04:08:00.443Z,72
2023-05-03T04:12:00.463Z,72
2023-05-03T04:16:01.405Z,73
2023-05-03T04:20:01.007Z,72
2023-05-03T04:24:00.479Z,72
2023-05-03T04:28:00.432Z,72
2023-05-03T04:32:00.464Z,73
2023-05-03T04:36:00.442Z,73
2023-05-03T04:40:00.639Z,73
2023-05-03T04:44:00.457Z,73
2023-05-03T04:48:00.481Z,73
2023-05-03T04:52:00.438Z,72
2023-05-03T04:56:00.470Z,72
2023-05-03T05:00:00.543Z,72
2023-05-03T05:04:00.690Z,71
2023-05-03T05:08:00.441Z,70
2023-05-03T05:12:00.452Z,69
2023-05-03T05:16:00.454Z,69
2023-05-03T05:20:00.863Z,67
2023-05-03T05:24:00.451Z,66
2023-05-03T05:28:00.428Z,65
2023-05-03T05:32:00.546Z,63
2023-05-03T05:36:00.424Z,61
2023-05-03T05:40:00.644Z,61
2023-05-03T05:44:00.460Z,60
2023-05-03T05:48:00.510Z,59
2023-05-03T05:52:00.476Z,59
2023-05-03T05:56:00.447Z,59
2023-05-03T06:00:00.819Z,59
2023-05-03T06:04:00.446Z,59
2023-05-03T06:08:00.458Z,58
2023-05-03T06:12:00.473Z,57
2023-05-03T06:16:00.470Z,57
2023-05-03T06:20:00.483Z,56
2023-05-03T06:24:00.456Z,55
2023-05-03T06:28:00.443Z,53
2023-05-03T06:32:00.435Z,53
2023-05-03T06:36:00.697Z,52
2023-05-03T06:40:00.568Z,52
2023-05-03T06:44:00.460Z,51
2023-05-03T06:48:00.563Z,50
2023-05-03T06:52:00.469Z,51
2023-05-03T06:56:00.422Z,49
2023-05-03T07:00:00.712Z,49
2023-05-03T07:04:00.571Z,48
2023-05-03T07:08:00.453Z,47
2023-05-03T07:12:00.443Z,46
2023-05-03T07:16:03.429Z,45
2023-05-03T07:20:00.536Z,44
2023-05-03T07:24:00.438Z,42
2023-05-03T07:28:00.472Z,41
2023-05-03T07:32:00.453Z,42
2023-05-03T07:36:00.460Z,39
2023-05-03T07:40:00.681Z,41
2023-05-03T07:44:00.460Z,40
2023-05-03T07:48:00.455Z,40
2023-05-03T07:52:00.467Z,40
2023-05-03T07:56:00.465Z,38
2023-05-03T08:00:00.589Z,39
2023-05-03T08:04:00.601Z,35
2023-05-03T08:08:00.443Z,38
2023-05-03T08:12:00.451Z,36
2023-05-03T08:16:00.505Z,35
2023-05-03T08:20:00.465Z,37
2023-05-03T08:24:00.466Z,36
2023-05-03T08:28:00.471Z,37
2023-05-03T08:32:00.523Z,36
2023-05-03T08:36:00.460Z,34
2023-05-03T08:40:00.459Z,33
2023-05-03T08:44:00.491Z,34
2023-05-03T08:48:00.489Z,35
2023-05-03T08:52:00.471Z,33
2023-05-03T08:56:00.466Z,32
2023-05-03T09:00:00.567Z,34
2023-05-03T09:04:00.543Z,33
2023-05-03T09:08:00.427Z,34
2023-05-03T09:12:00.457Z,34
2023-05-03T09:16:00.456Z,33
2023-05-03T09:20:00.459Z,35
2023-05-03T09:24:00.452Z,34
2023-05-03T09:28:00.440Z,33
2023-05-03T09:32:00.511Z,33
2023-05-03T09:36:00.450Z,36
2023-05-03T09:40:00.627Z,34
2023-05-03T09:44:00.457Z,34
2023-05-03T09:48:00.540Z,33
2023-05-03T09:52:00.443Z,34
2023-05-03T09:56:00.461Z,33
2023-05-03T10:00:00.451Z,33
2023-05-03T10:04:00.458Z,32
2023-05-03T10:08:00.459Z,33
2023-05-03T10:12:00.454Z,33
2023-05-03T10:16:00.586Z,31
2023-05-03T10:20:00.445Z,32
2023-05-03T10:24:00.431Z,33
2023-05-03T10:28:00.447Z,32
2023-05-03T10:32:00.437Z,31
2023-05-03T10:36:00.464Z,32
2023-05-03T10:40:00.423Z,31
2023-05-03T10:44:00.441Z,31
2023-05-03T10:48:00.455Z,31
2023-05-03T10:52:00.427Z,31
2023-05-03T10:56:00.446Z,31
2023-05-03T11:00:00.429Z,31
2023-05-03T11:04:00.466Z,31
2023-05-03T11:08:00.450Z,31
2023-05-03T11:12:00.415Z,30
2023-05-03T11:16:00.573Z,31
2023-05-03T11:20:00.428Z,31
2023-05-03T11:24:00.425Z,32
2023-05-03T11:28:00.420Z,30
2023-05-03T11:32:00.437Z,30
2023-05-03T11:36:00.442Z,30
2023-05-03T11:40:00.432Z,30
2023-05-03T11:44:14.917Z,30
2023-05-03T11:48:00.454Z,29
2023-05-03T11:52:00.694Z,30
2023-05-03T11:56:00.457Z,31
2023-05-03T12:00:00.422Z,30
2023-05-03T12:04:00.804Z,30
2023-05-03T12:08:01.696Z,29
2023-05-03T12:12:02.416Z,29
2023-05-03T12:20:25.586Z,29
2023-05-03T12:24:01.512Z,30
2023-05-03T12:32:00.542Z,29
2023-05-03T12:36:04.017Z,28
2023-05-03T12:40:30.367Z,29
2023-05-03T12:44:00.686Z,29
2023-05-03T12:48:00.576Z,30
2023-05-03T12:52:11.410Z,28
2023-05-03T12:56:00.634Z,27
2023-05-03T13:00:03.436Z,29
2023-05-03T13:08:07.586Z,28
2023-05-03T13:12:00.552Z,30
2023-05-03T13:16:00.529Z,27
2023-05-03T13:20:00.442Z,29
2023-05-03T13:24:00.449Z,28
2023-05-03T13:28:00.453Z,29
2023-05-03T13:32:00.504Z,28
2023-05-03T13:36:00.448Z,28
2023-05-03T13:40:00.468Z,28
2023-05-03T13:44:00.460Z,28
2023-05-03T13:48:18.085Z,28
2023-05-03T13:52:00.465Z,27
2023-05-03T13:56:00.445Z,26
2023-05-03T14:00:00.451Z,25
2023-05-03T14:04:00.537Z,27
2023-05-03T14:08:00.455Z,27
2023-05-03T14:12:00.430Z,26
2023-05-03T14:16:00.493Z,27
2023-05-03T14:20:00.443Z,28
2023-05-03T14:24:00.454Z,27
2023-05-03T14:28:00.450Z,27
2023-05-03T14:32:00.448Z,28
2023-05-03T14:36:00.427Z,28
2023-05-03T14:40:00.430Z,26
2023-05-03T14:44:00.449Z,27
2023-05-03T14:48:00.476Z,28
2023-05-03T14:52:00.447Z,26
2023-05-03T14:56:00.434Z,27
2023-05-03T15:00:00.456Z,28
2023-05-03T15:04:00.438Z,28
2023-05-03T15:08:00.473Z,27
2023-05-03T15:12:00.449Z,28
2023-05-03T15:16:00.467Z,28
2023-05-03T15:20:00.432Z,26
2023-05-03T15:24:00.439Z,26
2023-05-03T15:28:03.696Z,26
2023-05-03T15:32:00.459Z,26
2023-05-03T15:36:00.446Z,27
2023-05-03T15:40:00.486Z,27
2023-05-03T15:44:00.428Z,27
2023-05-03T15:48:00.518Z,27
2023-05-03T15:52:00.449Z,27
2023-05-03T15:56:00.444Z,27
2023-05-03T16:00:00.457Z,28
2023-05-03T16:04:00.436Z,29
2023-05-03T16:08:00.432Z,27
2023-05-03T16:12:00.473Z,28
2023-05-03T16:16:00.475Z,28
2023-05-03T16:20:00.537Z,29
2023-05-03T16:24:00.441Z,28
2023-05-03T16:28:00.448Z,29
2023-05-03T16:32:00.549Z,29
2023-05-03T16:36:00.449Z,30
2023-05-03T16:40:00.437Z,30
2023-05-03T16:44:00.461Z,30
2023-05-03T16:48:03.641Z,30
2023-05-03T16:52:00.462Z,30
2023-05-03T16:56:00.437Z,31
2023-05-03T17:00:02.512Z,31
2023-05-03T17:04:00.482Z,31
2023-05-03T17:08:00.456Z,30
2023-05-03T17:12:01.621Z,30
2023-05-03T17:16:00.445Z,30
2023-05-03T17:20:00.457Z,31
2023-05-03T17:24:00.466Z,31
2023-05-03T17:28:00.438Z,32
2023-05-03T17:32:00.491Z,33
2023-05-03T17:36:00.482Z,34
2023-05-03T17:40:00.496Z,35
2023-05-03T17:44:00.465Z,37
2023-05-03T17:48:00.510Z,38
2023-05-03T17:52:00.467Z,39
2023-05-03T17:56:00.443Z,39
2023-05-03T18:00:00.459Z,42
2023-05-03T18:04:00.520Z,43
2023-05-03T18:08:00.445Z,43
2023-05-03T18:12:00.441Z,44
2023-05-03T18:16:00.503Z,46
2023-05-03T18:20:00.454Z,47
2023-05-03T18:24:00.470Z,47
2023-05-03T18:28:00.450Z,48
2023-05-03T18:32:00.464Z,48
2023-05-03T18:36:00.464Z,49
2023-05-03T18:40:00.441Z,50
2023-05-03T18:44:00.457Z,50
2023-05-03T18:48:00.445Z,51
2023-05-03T18:52:00.457Z,51
2023-05-03T18:56:00.442Z,52
2023-05-03T19:00:01.650Z,53
2023-05-03T19:04:00.466Z,53
2023-05-03T19:08:00.449Z,54
2023-05-03T19:12:00.438Z,54
2023-05-03T19:16:00.455Z,54
2023-05-03T19:20:00.456Z,54
2023-05-03T19:24:00.448Z,55
2023-05-03T19:28:00.448Z,55
2023-05-03T19:32:00.453Z,56
2023-05-03T19:36:00.453Z,56
2023-05-03T19:40:00.467Z,56
2023-05-03T19:44:00.441Z,56
2023-05-03T19:48:00.555Z,56
2023-05-03T19:52:00.443Z,56
2023-05-03T19:56:00.450Z,57
2023-05-03T20:00:00.465Z,57
2023-05-03T20:04:00.602Z,57
2023-05-03T20:08:00.461Z,57
2023-05-03T20:12:00.472Z,57
2023-05-03T20:16:00.469Z,57
2023-05-03T20:20:00.460Z,57
2023-05-03T20:24:00.460Z,57
2023-05-03T20:28:00.493Z,57
2023-05-03T20:32:00.466Z,57
2023-05-03T20:36:00.508Z,57
2023-05-03T20:40:00.442Z,57
2023-05-03T20:44:00.459Z,57
2023-05-03T20:48:00.545Z,57
2023-05-03T20:52:00.448Z,57
2023-05-03T20:56:00.456Z,58
2023-05-03T21:00:00.468Z,57
2023-05-03T21:04:00.471Z,57
2023-05-03T21:08:00.456Z,58
2023-05-03T21:12:00.471Z,57
2023-05-03T21:16:00.443Z,58
2023-05-03T21:20:00.463Z,58
2023-05-03T21:24:00.448Z,58
2023-05-03T21:28:00.472Z,59
2023-05-03T21:32:00.666Z,59
2023-05-03T21:36:00.448Z,59
2023-05-03T21:40:02.368Z,60
2023-05-03T21:44:00.455Z,61
2023-05-03T21:48:00.438Z,61
2023-05-03T21:52:00.456Z,62
2023-05-03T21:56:00.442Z,63
2023-05-03T22:00:00.445Z,63
2023-05-03T22:04:00.645Z,63
2023-05-03T22:08:00.446Z,64
2023-05-03T22:12:05.970Z,64
2023-05-03T22:16:00.468Z,65
2023-05-03T22:20:00.465Z,64
2023-05-03T22:24:00.461Z,65
2023-05-03T22:28:00.467Z,65
2023-05-03T22:32:00.479Z,66
2023-05-03T22:36:00.451Z,66
2023-05-03T22:40:00.461Z,66
2023-05-03T22:44:00.498Z,67
2023-05-03T22:48:00.520Z,67
2023-05-03T22:52:00.443Z,67
2023-05-03T22:56:00.452Z,68
2023-05-03T23:00:00.459Z,68
2023-05-03T23:04:00.577Z,68
2023-05-03T23:08:00.452Z,68
2023-05-03T23:12:00.454Z,69
2023-05-03T23:16:00.448Z,69
2023-05-03T23:20:00.479Z,70
2023-05-03T23:24:00.494Z,70
2023-05-03T23:28:00.445Z,70
2023-05-03T23:32:00.448Z,70
2023-05-03T23:36:00.464Z,71
2023-05-03T23:40:00.456Z,71
2023-05-03T23:44:00.468Z,73
2023-05-03T23:48:00.482Z,73
2023-05-03T23:52:00.468Z,73
2023-05-03T23:56:00.460Z,73
